sensor_id;sensor_type;location;lat;lon;timestamp;pressure;altitude;pressure_sealevel;temperature;humidity
46614;BME280;32338;50.430;6.806;2023-11-19T00:01:31;66232.41;;;7.50;100.00
46614;BME280;32338;50.430;6.806;2023-11-19T00:04:00;66227.56;;;7.47;100.00
46614;BME280;32338;50.430;6.806;2023-11-19T00:06:26;66229.63;;;7.47;100.00
46614;BME280;32338;50.430;6.806;2023-11-19T00:08:53;66234.28;;;7.46;100.00
46614;BME280;32338;50.430;6.806;2023-11-19T00:11:19;66232.22;;;7.47;100.00
46614;BME280;32338;50.430;6.806;2023-11-19T00:13:46;66231.28;;;7.49;100.00
46614;BME280;32338;50.430;6.806;2023-11-19T00:16:13;66231.88;;;7.49;100.00
46614;BME280;32338;50.430;6.806;2023-11-19T00:18:39;66238.56;;;7.48;100.00
46614;BME280;32338;50.430;6.806;2023-11-19T00:21:07;66231.28;;;7.49;100.00
46614;BME280;32338;50.430;6.806;2023-11-19T00:23:35;66237.47;;;7.54;100.00
46614;BME280;32338;50.430;6.806;2023-11-19T00:26:02;66236.75;;;7.58;100.00
46614;BME280;32338;50.430;6.806;2023-11-19T00:28:31;66237.47;;;7.54;100.00
46614;BME280;32338;50.430;6.806;2023-11-19T00:30:58;66238.41;;;7.53;100.00
46614;BME280;32338;50.430;6.806;2023-11-19T00:33:24;66247.97;;;7.61;100.00
46614;BME280;32338;50.430;6.806;2023-11-19T00:35:50;66240.84;;;7.57;100.00
46614;BME280;32338;50.430;6.806;2023-11-19T00:38:18;66244.59;;;7.58;100.00
46614;BME280;32338;50.430;6.806;2023-11-19T00:40:45;66241.78;;;7.56;100.00
46614;BME280;32338;50.430;6.806;2023-11-19T00:43:11;66243.09;;;7.59;100.00
46614;BME280;32338;50.430;6.806;2023-11-19T00:45:38;66248.72;;;7.65;100.00
46614;BME280;32338;50.430;6.806;2023-11-19T00:48:05;66256.75;;;7.67;100.00
46614;BME280;32338;50.430;6.806;2023-11-19T00:50:32;66247.97;;;7.61;100.00
46614;BME280;32338;50.430;6.806;2023-11-19T00:52:58;66247.25;;;7.66;100.00
46614;BME280;32338;50.430;6.806;2023-11-19T00:55:26;66257.72;;;7.73;100.00
46614;BME280;32338;50.430;6.806;2023-11-19T00:57:53;66257.53;;;7.70;100.00
46614;BME280;32338;50.430;6.806;2023-11-19T01:00:21;66255.47;;;7.71;100.00
46614;BME280;32338;50.430;6.806;2023-11-19T01:02:51;66253.22;;;7.69;100.00
46614;BME280;32338;50.430;6.806;2023-11-19T01:05:18;66259.00;;;7.69;100.00
46614;BME280;32338;50.430;6.806;2023-11-19T01:07:46;66258.06;;;7.71;100.00
46614;BME280;32338;50.430;6.806;2023-11-19T01:10:13;66251.53;;;7.67;100.00
46614;BME280;32338;50.430;6.806;2023-11-19T01:12:42;66251.19;;;7.69;100.00
46614;BME280;32338;50.430;6.806;2023-11-19T01:15:09;66259.75;;;7.72;100.00
46614;BME280;32338;50.430;6.806;2023-11-19T01:17:36;66255.47;;;7.71;100.00
46614;BME280;32338;50.430;6.806;2023-11-19T01:20:04;66257.16;;;7.72;100.00
46614;BME280;32338;50.430;6.806;2023-11-19T01:22:31;66262.56;;;7.75;100.00
46614;BME280;32338;50.430;6.806;2023-11-19T01:24:58;66263.50;;;7.73;100.00
46614;BME280;32338;50.430;6.806;2023-11-19T01:27:25;66256.25;;;7.74;100.00
46614;BME280;32338;50.430;6.806;2023-11-19T01:29:53;66259.25;;;7.79;100.00
46614;BME280;32338;50.430;6.806;2023-11-19T01:32:20;66268.41;;;7.83;100.00
46614;BME280;32338;50.430;6.806;2023-11-19T01:34:49;66266.69;;;7.81;100.00
46614;BME280;32338;50.430;6.806;2023-11-19T01:37:16;66274.03;;;7.88;100.00
46614;BME280;32338;50.430;6.806;2023-11-19T01:39:43;66272.13;;;7.84;100.00
46614;BME280;32338;50.430;6.806;2023-11-19T01:42:10;66269.50;;;7.84;100.00
46614;BME280;32338;50.430;6.806;2023-11-19T01:44:37;66270.28;;;7.87;100.00
46614;BME280;32338;50.430;6.806;2023-11-19T01:47:06;66274.03;;;7.88;100.00
46614;BME280;32338;50.430;6.806;2023-11-19T01:49:32;66290.53;;;8.05;100.00
46614;BME280;32338;50.430;6.806;2023-11-19T01:52:00;66286.38;;;7.99;100.00
46614;BME280;32338;50.430;6.806;2023-11-19T01:54:27;66285.25;;;7.98;100.00
46614;BME280;32338;50.430;6.806;2023-11-19T01:56:56;66289.00;;;7.99;100.00
46614;BME280;32338;50.430;6.806;2023-11-19T01:59:23;66286.38;;;7.99;100.00
46614;BME280;32338;50.430;6.806;2023-11-19T02:01:53;66292.56;;;8.05;100.00
46614;BME280;32338;50.430;6.806;2023-11-19T02:04:21;66297.63;;;8.09;100.00
46614;BME280;32338;50.430;6.806;2023-11-19T02:06:49;66297.63;;;8.09;100.00
46614;BME280;32338;50.430;6.806;2023-11-19T02:09:18;66297.06;;;8.09;100.00
46614;BME280;32338;50.430;6.806;2023-11-19T02:11:45;66303.41;;;8.10;100.00
46614;BME280;32338;50.430;6.806;2023-11-19T02:14:14;66305.84;;;8.15;100.00
46614;BME280;32338;50.430;6.806;2023-11-19T02:16:41;66310.19;;;8.23;100.00
46614;BME280;32338;50.430;6.806;2023-11-19T02:19:07;66317.28;;;8.20;100.00
46614;BME280;32338;50.430;6.806;2023-11-19T02:21:37;66322.94;;;8.33;100.00
46614;BME280;32338;50.430;6.806;2023-11-19T02:24:06;66312.66;;;8.28;100.00
46614;BME280;32338;50.430;6.806;2023-11-19T02:26:39;66313.56;;;8.26;100.00
46614;BME280;32338;50.430;6.806;2023-11-19T02:29:07;66312.25;;;8.23;100.00
46614;BME280;32338;50.430;6.806;2023-11-19T02:31:33;66310.56;;;8.21;100.00
46614;BME280;32338;50.430;6.806;2023-11-19T02:34:01;66313.38;;;8.24;100.00
46614;BME280;32338;50.430;6.806;2023-11-19T02:36:28;66317.66;;;8.25;100.00
46614;BME280;32338;50.430;6.806;2023-11-19T02:38:54;66319.50;;;8.22;100.00
46614;BME280;32338;50.430;6.806;2023-11-19T02:41:21;66305.69;;;8.19;100.00
46614;BME280;32338;50.430;6.806;2023-11-19T02:43:47;66307.75;;;8.19;100.00
46614;BME280;32338;50.430;6.806;2023-11-19T02:46:16;66307.75;;;8.19;100.00
46614;BME280;32338;50.430;6.806;2023-11-19T02:48:44;66314.47;;;8.25;100.00
46614;BME280;32338;50.430;6.806;2023-11-19T02:51:11;66311.88;;;8.25;100.00
46614;BME280;32338;50.430;6.806;2023-11-19T02:53:38;66333.41;;;8.40;100.00
46614;BME280;32338;50.430;6.806;2023-11-19T02:56:06;66330.78;;;8.40;100.00
46614;BME280;32338;50.430;6.806;2023-11-19T02:58:42;66323.84;;;8.31;100.00
46614;BME280;32338;50.430;6.806;2023-11-19T03:01:10;66316.75;;;8.27;100.00
46614;BME280;32338;50.430;6.806;2023-11-19T03:03:45;66322.34;;;8.32;100.00
46614;BME280;32338;50.430;6.806;2023-11-19T03:06:14;66321.03;;;8.28;100.00
46614;BME280;32338;50.430;6.806;2023-11-19T03:08:41;66312.81;;;8.23;100.00
46614;BME280;32338;50.430;6.806;2023-11-19T03:11:08;66312.81;;;8.23;100.00
46614;BME280;32338;50.430;6.806;2023-11-19T03:13:34;66317.31;;;8.27;100.00
46614;BME280;32338;50.430;6.806;2023-11-19T03:16:01;66313.00;;;8.26;100.00
46614;BME280;32338;50.430;6.806;2023-11-19T03:18:27;66320.13;;;8.30;100.00
46614;BME280;32338;50.430;6.806;2023-11-19T03:20:55;66320.28;;;8.25;100.00
46614;BME280;32338;50.430;6.806;2023-11-19T03:23:22;66312.97;;;8.19;100.00
46614;BME280;32338;50.430;6.806;2023-11-19T03:25:49;66300.28;;;8.17;100.00
46614;BME280;32338;50.430;6.806;2023-11-19T03:28:16;66327.97;;;8.37;100.00
46614;BME280;32338;50.430;6.806;2023-11-19T03:30:42;66324.97;;;8.32;100.00
46614;BME280;32338;50.430;6.806;2023-11-19T03:33:09;66316.59;;;8.32;100.00
46614;BME280;32338;50.430;6.806;2023-11-19T03:35:35;66317.50;;;8.30;100.00
46614;BME280;32338;50.430;6.806;2023-11-19T03:38:03;66327.06;;;8.39;100.00
46614;BME280;32338;50.430;6.806;2023-11-19T03:40:30;66335.31;;;8.44;100.00
46614;BME280;32338;50.430;6.806;2023-11-19T03:42:57;66332.50;;;8.41;100.00
46614;BME280;32338;50.430;6.806;2023-11-19T03:45:23;66342.97;;;8.49;100.00
46614;BME280;32338;50.430;6.806;2023-11-19T03:47:50;66339.81;;;8.48;100.00
46614;BME280;32338;50.430;6.806;2023-11-19T03:50:17;66339.59;;;8.46;100.00
46614;BME280;32338;50.430;6.806;2023-11-19T03:52:45;66338.13;;;8.47;100.00
46614;BME280;32338;50.430;6.806;2023-11-19T03:55:13;66342.28;;;8.53;100.00
46614;BME280;32338;50.430;6.806;2023-11-19T03:57:39;66347.13;;;8.55;100.00
46614;BME280;32338;50.430;6.806;2023-11-19T04:00:07;66338.13;;;8.47;100.00
46614;BME280;32338;50.430;6.806;2023-11-19T04:02:35;66334.19;;;8.43;100.00
46614;BME280;32338;50.430;6.806;2023-11-19T04:05:02;66353.88;;;8.61;100.00
46614;BME280;32338;50.430;6.806;2023-11-19T04:07:29;66350.31;;;8.55;100.00
46614;BME280;32338;50.430;6.806;2023-11-19T04:09:56;66352.19;;;8.59;100.00
46614;BME280;32338;50.430;6.806;2023-11-19T04:12:24;66358.75;;;8.63;100.00
46614;BME280;32338;50.430;6.806;2023-11-19T04:14:51;66355.78;;;8.65;100.00
46614;BME280;32338;50.430;6.806;2023-11-19T04:17:18;66366.03;;;8.70;100.00
46614;BME280;32338;50.430;6.806;2023-11-19T04:19:44;66347.13;;;8.55;100.00
46614;BME280;32338;50.430;6.806;2023-11-19T04:22:11;66351.78;;;8.54;100.00
46614;BME280;32338;50.430;6.806;2023-11-19T04:24:37;66347.91;;;8.58;100.00
46614;BME280;32338;50.430;6.806;2023-11-19T04:27:04;66342.63;;;8.51;100.00
46614;BME280;32338;50.430;6.806;2023-11-19T04:29:33;66348.06;;;8.53;100.00
46614;BME280;32338;50.430;6.806;2023-11-19T04:31:59;66348.25;;;8.56;100.00
46614;BME280;32338;50.430;6.806;2023-11-19T04:34:26;66345.63;;;8.56;100.00
46614;BME280;32338;50.430;6.806;2023-11-19T04:36:53;66351.06;;;8.58;100.00
46614;BME280;32338;50.430;6.806;2023-11-19T04:39:19;66343.56;;;8.49;100.00
46614;BME280;32338;50.430;6.806;2023-11-19T04:41:46;66328.56;;;8.38;100.00
46614;BME280;32338;50.430;6.806;2023-11-19T04:44:14;66318.63;;;8.31;100.00
46614;BME280;32338;50.430;6.806;2023-11-19T04:46:42;66318.63;;;8.31;100.00
46614;BME280;32338;50.430;6.806;2023-11-19T04:49:09;66331.53;;;8.36;100.00
46614;BME280;32338;50.430;6.806;2023-11-19T04:51:38;66333.41;;;8.40;100.00
46614;BME280;32338;50.430;6.806;2023-11-19T04:54:05;66340.38;;;8.49;100.00
46614;BME280;32338;50.430;6.806;2023-11-19T04:56:32;66334.38;;;8.46;100.00
46614;BME280;32338;50.430;6.806;2023-11-19T04:58:58;66339.81;;;8.48;100.00
46614;BME280;32338;50.430;6.806;2023-11-19T05:01:25;66329.69;;;8.39;100.00
46614;BME280;32338;50.430;6.806;2023-11-19T05:03:53;66317.09;;;8.25;100.00
46614;BME280;32338;50.430;6.806;2023-11-19T05:06:19;66318.41;;;8.21;100.00
46614;BME280;32338;50.430;6.806;2023-11-19T05:08:46;66321.81;;;8.32;100.00
46614;BME280;32338;50.430;6.806;2023-11-19T05:11:12;66324.41;;;8.32;100.00
46614;BME280;32338;50.430;6.806;2023-11-19T05:13:43;66313.94;;;8.24;100.00
46614;BME280;32338;50.430;6.806;2023-11-19T05:16:10;66316.94;;;8.30;100.00
46614;BME280;32338;50.430;6.806;2023-11-19T05:18:39;66314.84;;;8.23;100.00
46614;BME280;32338;50.430;6.806;2023-11-19T05:21:07;66304.38;;;8.16;100.00
46614;BME280;32338;50.430;6.806;2023-11-19T05:23:34;66314.84;;;8.23;100.00
46614;BME280;32338;50.430;6.806;2023-11-19T05:26:00;66307.19;;;8.18;100.00
46614;BME280;32338;50.430;6.806;2023-11-19T05:28:27;66317.47;;;8.23;100.00
46614;BME280;32338;50.430;6.806;2023-11-19T05:30:54;66314.47;;;8.25;100.00
46614;BME280;32338;50.430;6.806;2023-11-19T05:33:20;66314.66;;;8.20;100.00
46614;BME280;32338;50.430;6.806;2023-11-19T05:35:47;66314.66;;;8.20;100.00
46614;BME280;32338;50.430;6.806;2023-11-19T05:38:15;66318.03;;;8.23;100.00
46614;BME280;32338;50.430;6.806;2023-11-19T05:40:41;66309.44;;;8.20;100.00
46614;BME280;32338;50.430;6.806;2023-11-19T05:43:09;66307.75;;;8.19;100.00
46614;BME280;32338;50.430;6.806;2023-11-19T05:45:35;66303.03;;;8.12;100.00
46614;BME280;32338;50.430;6.806;2023-11-19T05:48:02;66300.63;;;8.15;100.00
46614;BME280;32338;50.430;6.806;2023-11-19T05:50:29;66315.78;;;8.21;100.00
46614;BME280;32338;50.430;6.806;2023-11-19T05:52:56;66324.03;;;8.34;100.00
46614;BME280;32338;50.430;6.806;2023-11-19T05:55:24;66320.13;;;8.30;100.00
46614;BME280;32338;50.430;6.806;2023-11-19T05:57:53;66333.03;;;8.42;100.00
46614;BME280;32338;50.430;6.806;2023-11-19T06:00:20;66336.97;;;8.46;100.00
46614;BME280;32338;50.430;6.806;2023-11-19T06:02:46;66333.59;;;8.42;100.00
46614;BME280;32338;50.430;6.806;2023-11-19T06:05:13;66323.28;;;8.31;100.00
46614;BME280;32338;50.430;6.806;2023-11-19T06:07:39;66315.81;;;8.28;100.00
46614;BME280;32338;50.430;6.806;2023-11-19T06:10:07;66313.00;;;8.26;100.00
46614;BME280;32338;50.430;6.806;2023-11-19T06:12:36;66314.47;;;8.25;100.00
46614;BME280;32338;50.430;6.806;2023-11-19T06:15:07;66311.66;;;8.22;100.00
46614;BME280;32338;50.430;6.806;2023-11-19T06:17:34;66306.44;;;8.15;100.00
46614;BME280;32338;50.430;6.806;2023-11-19T06:20:01;66304.94;;;8.16;100.00
46614;BME280;32338;50.430;6.806;2023-11-19T06:22:29;66309.78;;;8.18;100.00
46614;BME280;32338;50.430;6.806;2023-11-19T06:24:56;66311.28;;;8.17;100.00
46614;BME280;32338;50.430;6.806;2023-11-19T06:27:23;66307.34;;;8.14;100.00
46614;BME280;32338;50.430;6.806;2023-11-19T06:29:51;66298.56;;;8.08;100.00
46614;BME280;32338;50.430;6.806;2023-11-19T06:32:18;66292.00;;;8.04;100.00
46614;BME280;32338;50.430;6.806;2023-11-19T06:34:45;66286.38;;;7.99;100.00
46614;BME280;32338;50.430;6.806;2023-11-19T06:37:11;66289.94;;;7.98;100.00
46614;BME280;32338;50.430;6.806;2023-11-19T06:39:38;66295.75;;;8.05;100.00
46614;BME280;32338;50.430;6.806;2023-11-19T06:42:05;66288.06;;;8.01;100.00
46614;BME280;32338;50.430;6.806;2023-11-19T06:44:32;66281.31;;;7.94;100.00
46614;BME280;32338;50.430;6.806;2023-11-19T06:47:00;66271.97;;;7.88;100.00
46614;BME280;32338;50.430;6.806;2023-11-19T06:49:27;66280.38;;;7.89;100.00
46614;BME280;32338;50.430;6.806;2023-11-19T06:51:54;66279.09;;;7.92;100.00
46614;BME280;32338;50.430;6.806;2023-11-19T06:54:20;66271.22;;;7.85;100.00
46614;BME280;32338;50.430;6.806;2023-11-19T06:56:48;66275.16;;;7.89;100.00
46614;BME280;32338;50.430;6.806;2023-11-19T06:59:15;66272.88;;;7.87;100.00
46614;BME280;32338;50.430;6.806;2023-11-19T07:01:41;66266.00;;;7.85;100.00
46614;BME280;32338;50.430;6.806;2023-11-19T07:04:11;66267.81;;;7.82;100.00
46614;BME280;32338;50.430;6.806;2023-11-19T07:06:38;66277.19;;;7.88;100.00
46614;BME280;32338;50.430;6.806;2023-11-19T07:09:06;66275.50;;;7.87;100.00
46614;BME280;32338;50.430;6.806;2023-11-19T07:11:35;66272.13;;;7.84;100.00
46614;BME280;32338;50.430;6.806;2023-11-19T07:14:04;66273.81;;;7.85;100.00
46614;BME280;32338;50.430;6.806;2023-11-19T07:16:31;66273.25;;;7.85;100.00
46614;BME280;32338;50.430;6.806;2023-11-19T07:18:58;66272.34;;;7.86;100.00
46614;BME280;32338;50.430;6.806;2023-11-19T07:21:26;66280.38;;;7.89;100.00
46614;BME280;32338;50.430;6.806;2023-11-19T07:23:54;66275.09;;;7.82;100.00
46614;BME280;32338;50.430;6.806;2023-11-19T07:26:21;66257.56;;;7.77;100.00
46614;BME280;32338;50.430;6.806;2023-11-19T07:28:48;66259.41;;;7.74;100.00
46614;BME280;32338;50.430;6.806;2023-11-19T07:31:14;66250.63;;;7.69;100.00
46614;BME280;32338;50.430;6.806;2023-11-19T07:33:41;66255.09;;;7.73;100.00
46614;BME280;32338;50.430;6.806;2023-11-19T07:36:08;66258.47;;;7.76;100.00
46614;BME280;32338;50.430;6.806;2023-11-19T07:38:37;66257.16;;;7.72;100.00
46614;BME280;32338;50.430;6.806;2023-11-19T07:41:04;66258.28;;;7.73;100.00
46614;BME280;32338;50.430;6.806;2023-11-19T07:43:32;66262.97;;;7.80;100.00
46614;BME280;32338;50.430;6.806;2023-11-19T07:45:58;66273.03;;;7.82;100.00
46614;BME280;32338;50.430;6.806;2023-11-19T07:48:25;66274.03;;;7.88;100.00
46614;BME280;32338;50.430;6.806;2023-11-19T07:50:52;66281.91;;;7.95;100.00
46614;BME280;32338;50.430;6.806;2023-11-19T07:53:19;66279.28;;;7.95;100.00
46614;BME280;32338;50.430;6.806;2023-11-19T07:55:47;66280.38;;;7.96;100.00
46614;BME280;32338;50.430;6.806;2023-11-19T07:58:14;66280.00;;;7.91;100.00
46614;BME280;32338;50.430;6.806;2023-11-19T08:00:40;66283.00;;;7.96;100.00
46614;BME280;32338;50.430;6.806;2023-11-19T08:03:07;66284.13;;;7.97;100.00
46614;BME280;32338;50.430;6.806;2023-11-19T08:05:33;66274.22;;;7.90;100.00
46614;BME280;32338;50.430;6.806;2023-11-19T08:08:00;66277.59;;;7.93;100.00
46614;BME280;32338;50.430;6.806;2023-11-19T08:10:27;66283.56;;;7.97;100.00
46614;BME280;32338;50.430;6.806;2023-11-19T08:12:55;66296.66;;;8.04;100.00
46614;BME280;32338;50.430;6.806;2023-11-19T08:15:21;66303.03;;;8.12;100.00
46614;BME280;32338;50.430;6.806;2023-11-19T08:17:48;66302.31;;;8.16;100.00
46614;BME280;32338;50.430;6.806;2023-11-19T08:20:15;66299.31;;;8.11;100.00
46614;BME280;32338;50.430;6.806;2023-11-19T08:22:41;66309.44;;;8.20;100.00
46614;BME280;32338;50.430;6.806;2023-11-19T08:25:08;66306.78;;;8.13;100.00
46614;BME280;32338;50.430;6.806;2023-11-19T08:27:35;66312.25;;;8.23;100.00
46614;BME280;32338;50.430;6.806;2023-11-19T08:30:04;66326.09;;;8.33;100.00
46614;BME280;32338;50.430;6.806;2023-11-19T08:32:31;66316.00;;;8.31;100.00
46614;BME280;32338;50.430;6.806;2023-11-19T08:34:57;66328.56;;;8.38;100.00
46614;BME280;32338;50.430;6.806;2023-11-19T08:37:24;66339.94;;;8.43;100.00
46614;BME280;32338;50.430;6.806;2023-11-19T08:39:51;66323.88;;;8.38;100.00
46614;BME280;32338;50.430;6.806;2023-11-19T08:42:18;66331.00;;;8.42;100.00
46614;BME280;32338;50.430;6.806;2023-11-19T08:44:48;66335.47;;;8.39;100.00
46614;BME280;32338;50.430;6.806;2023-11-19T08:47:17;66344.50;;;8.48;100.00
46614;BME280;32338;50.430;6.806;2023-11-19T08:49:44;66351.06;;;8.58;100.00
46614;BME280;32338;50.430;6.806;2023-11-19T08:52:10;66352.19;;;8.59;100.00
46614;BME280;32338;50.430;6.806;2023-11-19T08:54:37;66361.56;;;8.66;100.00
46614;BME280;32338;50.430;6.806;2023-11-19T08:57:04;66378.22;;;8.79;100.00
46614;BME280;32338;50.430;6.806;2023-11-19T08:59:32;66371.88;;;8.77;100.00
46614;BME280;32338;50.430;6.806;2023-11-19T09:01:59;66378.06;;;8.83;100.00
46614;BME280;32338;50.430;6.806;2023-11-19T09:04:27;66376.94;;;8.82;100.00
46614;BME280;32338;50.430;6.806;2023-11-19T09:06:53;66379.38;;;8.87;100.00
46614;BME280;32338;50.430;6.806;2023-11-19T09:09:21;66379.75;;;8.85;100.00
46614;BME280;32338;50.430;6.806;2023-11-19T09:11:47;66391.00;;;8.95;100.00
46614;BME280;32338;50.430;6.806;2023-11-19T09:14:14;66387.06;;;8.91;100.00
46614;BME280;32338;50.430;6.806;2023-11-19T09:16:40;66399.81;;;9.01;100.00
46614;BME280;32338;50.430;6.806;2023-11-19T09:19:07;66404.50;;;9.07;100.00
46614;BME280;32338;50.430;6.806;2023-11-19T09:21:35;66408.25;;;9.08;100.00
46614;BME280;32338;50.430;6.806;2023-11-19T09:24:04;66411.63;;;9.12;100.00
46614;BME280;32338;50.430;6.806;2023-11-19T09:26:32;66418.59;;;9.20;100.00
46614;BME280;32338;50.430;6.806;2023-11-19T09:28:59;66428.88;;;9.25;100.00
46614;BME280;32338;50.430;6.806;2023-11-19T09:31:26;66420.81;;;9.22;100.00
46614;BME280;32338;50.430;6.806;2023-11-19T09:33:52;66425.13;;;9.24;100.00
46614;BME280;32338;50.430;6.806;2023-11-19T09:36:19;66445.19;;;9.40;100.00
46614;BME280;32338;50.430;6.806;2023-11-19T09:38:47;66434.53;;;9.37;100.00
46614;BME280;32338;50.430;6.806;2023-11-19T09:41:13;66443.34;;;9.43;100.00
46614;BME280;32338;50.430;6.806;2023-11-19T09:43:41;66458.53;;;9.57;100.00
46614;BME280;32338;50.430;6.806;2023-11-19T09:46:09;66469.78;;;9.67;100.00
46614;BME280;32338;50.430;6.806;2023-11-19T09:48:38;66474.69;;;9.77;100.00
46614;BME280;32338;50.430;6.806;2023-11-19T09:51:06;66478.44;;;9.78;100.00
46614;BME280;32338;50.430;6.806;2023-11-19T09:53:33;66458.53;;;9.57;100.00
46614;BME280;32338;50.430;6.806;2023-11-19T09:56:02;66470.00;;;9.70;100.00
46614;BME280;32338;50.430;6.806;2023-11-19T09:58:29;66455.91;;;9.57;100.00
46614;BME280;32338;50.430;6.806;2023-11-19T10:00:55;66457.41;;;9.56;100.00
46614;BME280;32338;50.430;6.806;2023-11-19T10:03:24;66458.72;;;9.60;100.00
46614;BME280;32338;50.430;6.806;2023-11-19T10:05:51;66455.53;;;9.52;100.00
46614;BME280;32338;50.430;6.806;2023-11-19T10:08:17;66464.91;;;9.58;100.00
46614;BME280;32338;50.430;6.806;2023-11-19T10:10:44;66456.84;;;9.55;100.00
46614;BME280;32338;50.430;6.806;2023-11-19T10:13:12;66462.69;;;9.63;100.00
46614;BME280;32338;50.430;6.806;2023-11-19T10:15:40;66483.31;;;9.80;100.00
46614;BME280;32338;50.430;6.806;2023-11-19T10:18:07;66497.38;;;9.93;100.00
46614;BME280;32338;50.430;6.806;2023-11-19T10:20:37;66478.03;;;9.72;100.00
46614;BME280;32338;50.430;6.806;2023-11-19T10:23:03;66457.06;;;9.58;100.00
46614;BME280;32338;50.430;6.806;2023-11-19T10:25:30;66466.78;;;9.62;100.00
46614;BME280;32338;50.430;6.806;2023-11-19T10:27:57;66467.75;;;9.68;100.00
46614;BME280;32338;50.430;6.806;2023-11-19T10:30:26;66472.41;;;9.67;100.00
46614;BME280;32338;50.430;6.806;2023-11-19T10:33:04;66467.56;;;9.65;100.00
46614;BME280;32338;50.430;6.806;2023-11-19T10:35:31;66476.56;;;9.73;100.00
46614;BME280;32338;50.430;6.806;2023-11-19T10:37:59;66514.84;;;10.09;100.00
46614;BME280;32338;50.430;6.806;2023-11-19T10:40:38;66513.91;;;10.10;100.00
46614;BME280;32338;50.430;6.806;2023-11-19T10:43:06;66512.38;;;10.04;100.00
46614;BME280;32338;50.430;6.806;2023-11-19T10:45:35;66512.78;;;10.09;100.00
46614;BME280;32338;50.430;6.806;2023-11-19T10:48:03;66540.75;;;10.32;100.00
46614;BME280;32338;50.430;6.806;2023-11-19T10:50:32;66546.41;;;10.37;100.00
46614;BME280;32338;50.430;6.806;2023-11-19T10:52:59;66512.03;;;10.06;100.00
46614;BME280;32338;50.430;6.806;2023-11-19T10:55:27;66532.09;;;10.22;100.00
46614;BME280;32338;50.430;6.806;2023-11-19T10:57:58;66524.59;;;10.20;100.00
46614;BME280;32338;50.430;6.806;2023-11-19T11:00:26;66533.63;;;10.28;100.00
46614;BME280;32338;50.430;6.806;2023-11-19T11:03:00;66541.69;;;10.31;100.00
46614;BME280;32338;50.430;6.806;2023-11-19T11:05:27;66547.91;;;10.44;100.00
46614;BME280;32338;50.430;6.806;2023-11-19T11:07:55;66579.47;;;10.65;100.00
46614;BME280;32338;50.430;6.806;2023-11-19T11:10:25;66602.75;;;10.89;100.00
46614;BME280;32338;50.430;6.806;2023-11-19T11:12:52;66586.63;;;10.77;100.00
46614;BME280;32338;50.430;6.806;2023-11-19T11:15:24;66622.66;;;11.10;100.00
46614;BME280;32338;50.430;6.806;2023-11-19T11:17:57;66626.81;;;11.16;100.00
46614;BME280;32338;50.430;6.806;2023-11-19T11:20:26;66624.00;;;11.13;100.00
46614;BME280;32338;50.430;6.806;2023-11-19T11:23:01;66602.97;;;10.92;100.00
46614;BME280;32338;50.430;6.806;2023-11-19T11:25:38;66586.22;;;10.79;100.00
46614;BME280;32338;50.430;6.806;2023-11-19T11:28:26;66576.09;;;10.69;100.00
46614;BME280;32338;50.430;6.806;2023-11-19T11:31:15;66559.91;;;10.43;100.00
46614;BME280;32338;50.430;6.806;2023-11-19T11:34:05;66539.06;;;10.31;100.00
46614;BME280;32338;50.430;6.806;2023-11-19T11:36:45;66518.97;;;10.15;100.00
46614;BME280;32338;50.430;6.806;2023-11-19T11:39:16;66513.91;;;10.10;100.00
46614;BME280;32338;50.430;6.806;2023-11-19T11:41:44;66529.84;;;10.20;100.00
46614;BME280;32338;50.430;6.806;2023-11-19T11:44:10;66514.84;;;10.09;100.00
46614;BME280;32338;50.430;6.806;2023-11-19T11:46:55;66510.34;;;10.04;100.00
46614;BME280;32338;50.430;6.806;2023-11-19T11:49:28;66505.66;;;9.98;100.00
46614;BME280;32338;50.430;6.806;2023-11-19T11:52:03;66498.69;;;9.96;100.00
46614;BME280;32338;50.430;6.806;2023-11-19T11:54:30;66505.84;;;10.00;100.00
46614;BME280;32338;50.430;6.806;2023-11-19T11:57:07;66508.66;;;10.03;100.00
46614;BME280;32338;50.430;6.806;2023-11-19T11:59:43;66515.59;;;10.12;100.00
46614;BME280;32338;50.430;6.806;2023-11-19T12:02:11;66518.59;;;10.10;100.00
46614;BME280;32338;50.430;6.806;2023-11-19T12:04:40;66527.22;;;10.20;100.00
46614;BME280;32338;50.430;6.806;2023-11-19T12:07:12;66547.16;;;10.41;100.00
46614;BME280;32338;50.430;6.806;2023-11-19T12:09:40;66565.94;;;10.60;100.00
46614;BME280;32338;50.430;6.806;2023-11-19T12:12:12;66582.66;;;10.73;100.00
46614;BME280;32338;50.430;6.806;2023-11-19T12:15:05;66574.56;;;10.63;100.00
46614;BME280;32338;50.430;6.806;2023-11-19T12:17:41;66589.97;;;10.80;100.00
46614;BME280;32338;50.430;6.806;2023-11-19T12:20:12;66586.97;;;10.75;100.00
46614;BME280;32338;50.430;6.806;2023-11-19T12:22:40;66589.44;;;10.79;100.00
46614;BME280;32338;50.430;6.806;2023-11-19T12:25:08;66583.41;;;10.76;100.00
46614;BME280;32338;50.430;6.806;2023-11-19T12:27:35;66595.78;;;10.80;100.00
46614;BME280;32338;50.430;6.806;2023-11-19T12:30:02;66596.75;;;10.86;100.00
46614;BME280;32338;50.430;6.806;2023-11-19T12:32:37;66596.00;;;10.83;100.00
46614;BME280;32338;50.430;6.806;2023-11-19T12:35:04;66587.53;;;10.75;100.00
46614;BME280;32338;50.430;6.806;2023-11-19T12:37:33;66583.03;;;10.71;100.00
46614;BME280;32338;50.430;6.806;2023-11-19T12:40:00;66566.50;;;10.53;100.00
46614;BME280;32338;50.430;6.806;2023-11-19T12:42:36;66563.13;;;10.50;100.00
46614;BME280;32338;50.430;6.806;2023-11-19T12:45:04;66563.31;;;10.53;100.00
46614;BME280;32338;50.430;6.806;2023-11-19T12:47:31;66556.56;;;10.47;100.00
46614;BME280;32338;50.430;6.806;2023-11-19T12:49:58;66552.03;;;10.43;100.00
46614;BME280;32338;50.430;6.806;2023-11-19T12:52:24;66541.88;;;10.33;100.00
46614;BME280;32338;50.430;6.806;2023-11-19T12:54:53;66525.91;;;10.16;100.00
46614;BME280;32338;50.430;6.806;2023-11-19T12:57:20;66527.59;;;10.18;100.00
46614;BME280;32338;50.430;6.806;2023-11-19T12:59:55;66524.56;;;10.13;100.00
46614;BME280;32338;50.430;6.806;2023-11-19T13:02:22;66514.28;;;10.08;100.00